Time;durP1;ratioP1;P1;durP2;ratioP2;P2;SDS_P1;SDS_P2;PMS_P1;PMS_P2;Temp;Humidity;BMP_temperature;BMP_pressure;BME280_temperature;BME280_humidity;BME280_pressure;Samples;Min_cycle;Max_cycle;Signal;HPM_P1;HPM_P2
2022/08/14 00:00:15;;;;;;;2.15;1.25;;;;;;;-140.72;0.00;51985.06;5023221;28;20030;-65
2022/08/14 00:02:42;;;;;;;2.28;1.58;;;;;;;-140.72;0.00;51997.22;5023683;28;20446;-64
2022/08/14 00:05:10;;;;;;;1.90;1.20;;;;;;;-140.72;0.00;51997.22;5023574;28;20092;-65
2022/08/14 00:07:36;;;;;;;5.38;1.60;;;;;;;-140.72;0.00;51997.22;5022652;28;20017;-67
2022/08/14 00:10:04;;;;;;;2.67;1.58;;;;;;;-140.72;0.00;52025.63;5023569;28;20082;-66
2022/08/14 00:12:33;;;;;;;3.85;1.98;;;;;;;-140.72;0.00;52021.56;5023591;28;20034;-65
2022/08/14 00:14:59;;;;;;;2.97;1.60;;;;;;;-140.72;0.00;51974.91;5021621;28;20041;-66
2022/08/14 00:17:25;;;;;;;2.63;1.63;;;;;;;-140.72;0.00;52045.94;5023597;28;20026;-65
2022/08/14 00:19:53;;;;;;;2.42;1.20;;;;;;;-140.72;0.00;51985.06;5023757;28;20026;-66
2022/08/14 00:22:19;;;;;;;2.47;1.80;;;;;;;-140.72;0.00;51993.19;5023836;28;20029;-67
2022/08/14 00:24:44;;;;;;;2.03;1.27;;;;;;;-140.72;0.00;51978.97;5023974;28;20026;-66
2022/08/14 00:27:10;;;;;;;1.80;1.50;;;;;;;-140.72;0.00;52029.69;5023064;28;20053;-65
2022/08/14 00:29:36;;;;;;;2.03;1.48;;;;;;;-140.72;0.00;51987.09;5021851;28;20021;-66
2022/08/14 00:32:02;;;;;;;1.98;1.30;;;;;;;-140.72;0.00;51993.19;5023435;28;20060;-65
2022/08/14 00:34:27;;;;;;;1.85;1.52;;;;;;;-140.72;0.00;51972.88;5023302;28;20118;-66
2022/08/14 00:36:52;;;;;;;2.47;1.85;;;;;;;-140.72;0.00;51981.00;5024085;28;20462;-66
2022/08/14 00:39:18;;;;;;;3.60;1.70;;;;;;;-140.72;0.00;52037.81;5022629;28;20528;-67
2022/08/14 00:41:44;;;;;;;2.22;1.60;;;;;;;-140.72;0.00;51983.03;5023619;28;20030;-65
2022/08/14 00:44:09;;;;;;;2.85;1.83;;;;;;;-140.72;0.00;52001.28;5023502;28;20093;-66
2022/08/14 00:46:38;;;;;;;4.72;2.35;;;;;;;-140.72;0.00;51989.13;5018316;28;20117;-65
2022/08/14 00:49:04;;;;;;;2.35;1.58;;;;;;;-140.72;0.00;51993.19;5023175;28;20111;-66
2022/08/14 00:51:31;;;;;;;2.85;1.77;;;;;;;-140.72;0.00;52001.28;5022154;28;20124;-64
2022/08/14 00:53:57;;;;;;;2.80;1.55;;;;;;;-140.72;0.00;52013.47;5022898;28;20033;-66
2022/08/14 00:56:25;;;;;;;3.67;2.05;;;;;;;-140.72;0.00;52021.56;5021092;28;20026;-65
2022/08/14 00:58:51;;;;;;;2.55;1.60;;;;;;;-140.72;0.00;52047.97;5023046;28;20045;-66
2022/08/14 01:01:17;;;;;;;3.05;2.10;;;;;;;-140.72;0.00;52001.28;5021224;28;20040;-66
2022/08/14 01:03:44;;;;;;;3.10;2.28;;;;;;;-140.72;0.00;52001.28;5021411;28;20457;-65
2022/08/14 01:06:12;;;;;;;3.05;1.80;;;;;;;-140.72;0.00;52031.72;5023190;28;20109;-64
2022/08/14 01:08:38;;;;;;;4.10;2.53;;;;;;;-140.72;0.00;52025.63;5024302;28;20018;-65
2022/08/14 01:11:05;;;;;;;3.67;2.22;;;;;;;-140.72;0.00;52021.56;5024276;28;20109;-66
2022/08/14 01:13:37;;;;;;;2.83;2.08;;;;;;;-140.72;0.00;52029.69;5010895;28;20030;-65
2022/08/14 01:16:08;;;;;;;4.25;1.85;;;;;;;-140.72;0.00;52021.56;5024899;28;20022;-65
2022/08/14 01:21:33;;;;;;;4.40;2.50;;;;;;;-140.72;0.00;52039.84;5025881;28;20069;-65
2022/08/14 01:23:59;;;;;;;3.97;1.88;;;;;;;-140.72;0.00;52047.97;5026431;28;20068;-66
2022/08/14 01:26:27;;;;;;;2.85;1.83;;;;;;;-140.72;0.00;51991.16;5026954;28;20057;-66
2022/08/14 01:28:54;;;;;;;2.97;2.15;;;;;;;-140.72;0.00;52005.34;5025990;28;20026;-66
2022/08/14 01:31:22;;;;;;;3.28;2.25;;;;;;;-140.72;0.00;51983.03;5026782;28;20093;-66
2022/08/14 01:33:51;;;;;;;2.78;2.08;;;;;;;-140.72;0.00;51989.13;5026533;28;20050;-65
2022/08/14 01:36:22;;;;;;;3.03;2.45;;;;;;;-140.72;0.00;52005.34;5026292;28;20040;-66
2022/08/14 01:38:50;;;;;;;2.83;2.40;;;;;;;-140.72;0.00;51997.22;5026230;28;20105;-66
2022/08/14 01:41:19;;;;;;;2.75;2.25;;;;;;;-140.72;0.00;52047.97;5026950;28;20100;-66
2022/08/14 01:43:50;;;;;;;5.13;2.28;;;;;;;-140.72;0.00;52023.59;5026007;28;20034;-65
2022/08/14 01:46:22;;;;;;;2.72;2.30;;;;;;;-140.72;0.00;52001.28;5017767;28;20037;-65
2022/08/14 01:48:50;;;;;;;3.80;2.38;;;;;;;-140.72;0.00;52011.44;5021328;28;20103;-66
2022/08/14 01:51:21;;;;;;;3.80;2.78;;;;;;;-140.72;0.00;52013.47;5026685;28;20088;-66
2022/08/14 01:53:53;;;;;;;2.50;2.20;;;;;;;-140.72;0.00;52043.91;5026464;28;20048;-66
2022/08/14 01:56:19;;;;;;;2.83;2.33;;;;;;;-140.72;0.00;52039.84;5025446;28;20017;-66
2022/08/14 01:58:48;;;;;;;2.75;2.10;;;;;;;-140.72;0.00;52003.31;5026025;28;20106;-66
2022/08/14 02:01:18;;;;;;;3.15;2.80;;;;;;;-140.72;0.00;52033.75;5025982;28;20061;-67
2022/08/14 02:03:44;;;;;;;3.33;2.63;;;;;;;-140.72;0.00;52058.09;5026280;28;20034;-66
2022/08/14 02:06:11;;;;;;;3.97;2.88;;;;;;;-140.72;0.00;52068.25;5024782;28;20029;-64
2022/08/14 02:08:38;;;;;;;2.95;2.10;;;;;;;-140.72;0.00;51991.16;5025519;28;20405;-66
2022/08/14 02:11:21;;;;;;;3.45;2.65;;;;;;;-140.72;0.00;52013.47;5025119;28;20030;-67
2022/08/14 02:13:53;;;;;;;3.55;2.80;;;;;;;-140.72;0.00;52033.75;5025595;28;20030;-66
2022/08/14 02:16:25;;;;;;;3.72;2.85;;;;;;;-140.72;0.00;52054.03;5026380;28;20119;-66
2022/08/14 02:18:56;;;;;;;3.55;2.33;;;;;;;-140.72;0.00;52049.97;5026289;28;20061;-65
2022/08/14 02:21:23;;;;;;;3.58;2.50;;;;;;;-140.72;0.00;52039.84;5030511;28;20041;-65
2022/08/14 02:23:50;;;;;;;3.60;3.00;;;;;;;-140.72;0.00;52045.94;5021918;28;20037;-67
2022/08/14 02:26:19;;;;;;;3.80;2.70;;;;;;;-140.72;0.00;52076.34;5022167;28;20042;-65
2022/08/14 02:28:46;;;;;;;3.53;2.92;;;;;;;-140.72;0.00;52041.88;5023248;28;20145;-66
2022/08/14 02:31:13;;;;;;;4.55;2.90;;;;;;;-140.72;0.00;52037.81;5019969;28;20025;-64
2022/08/14 02:33:40;;;;;;;4.85;3.20;;;;;;;-140.72;0.00;52058.09;5030313;22;20611;-71
2022/08/14 02:36:06;;;;;;;4.22;3.00;;;;;;;-140.72;0.00;52005.34;4988218;28;20034;-69
2022/08/14 02:38:32;;;;;;;3.90;3.10;;;;;;;-140.72;0.00;52066.22;4991402;28;20035;-69
2022/08/14 02:40:58;;;;;;;3.85;2.50;;;;;;;-140.72;0.00;52039.84;4990411;28;20033;-69
2022/08/14 02:43:25;;;;;;;3.35;2.85;;;;;;;-140.72;0.00;52015.50;4990186;28;20027;-69
2022/08/14 02:49:27;;;;;;;3.60;2.50;;;;;;;-140.72;0.00;52062.16;4991213;28;20049;-70
2022/08/14 02:51:56;;;;;;;3.67;2.80;;;;;;;-140.72;0.00;52060.13;4992302;28;20033;-69
2022/08/14 02:54:23;;;;;;;5.65;3.17;;;;;;;-140.72;0.00;52056.06;5007602;28;20053;-70
2022/08/14 02:56:56;;;;;;;4.13;2.85;;;;;;;-140.72;0.00;52062.16;4987770;28;20034;-69
2022/08/14 02:59:23;;;;;;;5.53;3.88;;;;;;;-140.72;0.00;52076.34;4981915;28;20114;-70
2022/08/14 03:01:49;;;;;;;4.18;3.30;;;;;;;-140.72;0.00;52023.59;4991487;28;20018;-70
2022/08/14 03:04:15;;;;;;;3.33;2.90;;;;;;;-140.72;0.00;52045.94;5014942;28;20029;-70
2022/08/14 03:06:44;;;;;;;4.35;3.75;;;;;;;-140.72;1.73;52062.16;4996316;28;20026;-70
2022/08/14 03:09:14;;;;;;;4.90;3.05;;;;;;;-140.72;5.18;52003.31;5010907;28;20026;-70
2022/08/14 03:11:41;;;;;;;5.80;3.30;;;;;;;-140.72;5.11;52084.47;4999957;28;20030;-70
2022/08/14 03:14:08;;;;;;;4.13;3.45;;;;;;;-140.72;6.89;52078.38;4992892;28;20073;-70
2022/08/14 03:16:35;;;;;;;4.85;2.95;;;;;;;-140.72;5.29;52076.34;4985752;28;20026;-70
2022/08/14 03:19:02;;;;;;;4.03;3.30;;;;;;;-140.72;9.37;52086.50;5001962;28;20034;-69
2022/08/14 03:21:32;;;;;;;4.32;3.42;;;;;;;-140.72;8.60;52078.38;5015830;28;20065;-70
2022/08/14 03:26:29;;;;;;;4.78;3.60;;;;;;;-140.72;13.59;52049.97;4998238;28;20039;-70
2022/08/14 03:28:56;;;;;;;4.35;3.30;;;;;;;-140.72;14.44;52070.28;4982624;28;20034;-69
2022/08/14 03:31:22;;;;;;;5.07;3.70;;;;;;;-140.72;22.82;52066.22;4998927;28;20031;-71
2022/08/14 03:33:49;;;;;;;4.10;3.30;;;;;;;-140.72;32.26;52049.97;4992321;28;20133;-71
2022/08/14 03:36:16;;;;;;;4.63;3.63;;;;;;;-140.72;39.34;52076.34;4974974;28;20035;-70
2022/08/14 03:38:43;;;;;;;5.43;3.22;;;;;;;-140.72;40.53;52088.53;4975188;28;20054;-71
2022/08/14 03:41:15;;;;;;;5.10;4.32;;;;;;;-140.72;43.52;52086.50;4981643;28;20031;-70
2022/08/14 03:43:49;;;;;;;4.20;3.72;;;;;;;-140.72;47.41;52092.59;4974023;28;20109;-70
2022/08/14 03:46:16;;;;;;;4.50;3.55;;;;;;;-140.72;51.16;52078.38;4975001;28;20033;-70
2022/08/14 03:48:42;;;;;;;5.03;4.00;;;;;;;-140.72;54.63;52045.94;4975299;28;20050;-71
2022/08/14 03:51:09;;;;;;;5.32;4.43;;;;;;;-140.72;56.90;52066.22;4975032;28;20031;-70
2022/08/14 03:53:36;;;;;;;5.38;4.28;;;;;;;-140.72;60.70;52064.19;4988701;28;20026;-71
2022/08/14 03:56:04;;;;;;;5.15;4.15;;;;;;;-140.72;59.82;52098.69;4974758;28;20029;-70
2022/08/14 03:58:31;;;;;;;5.20;3.60;;;;;;;-140.72;66.36;52104.75;4975127;28;20031;-70
2022/08/14 04:00:57;;;;;;;6.32;4.55;;;;;;;-140.72;69.33;52102.75;4974723;28;20114;-70
2022/08/14 04:03:25;;;;;;;5.15;3.88;;;;;;;-140.72;74.50;52092.59;4975377;28;20031;-70
2022/08/14 04:05:51;;;;;;;6.00;4.50;;;;;;;-140.72;75.61;52108.81;4968274;28;20023;-71
2022/08/14 04:08:17;;;;;;;5.57;4.32;;;;;;;-140.72;85.51;52133.16;4966921;28;20029;-70
2022/08/14 04:10:45;;;;;;;5.68;4.35;;;;;;;-140.72;94.73;52123.03;4975072;28;20029;-70
2022/08/14 04:13:11;;;;;;;3.97;3.25;;;;;;;-140.72;93.04;52102.75;4962232;28;20031;-70
2022/08/14 04:15:37;;;;;;;6.47;4.35;;;;;;;-140.72;98.11;52135.19;4974605;28;20085;-70
2022/08/14 04:18:07;;;;;;;5.43;4.57;;;;;;;-140.72;100.00;52118.97;4974066;28;20129;-70
2022/08/14 04:20:35;;;;;;;6.50;4.05;;;;;;;-140.72;100.00;52102.75;4974449;28;20445;-70
2022/08/14 04:23:03;;;;;;;5.90;4.30;;;;;;;-140.72;100.00;52070.28;4973309;28;20030;-70
2022/08/14 04:25:32;;;;;;;5.38;4.18;;;;;;;-140.72;100.00;52110.84;4968826;28;20038;-71
2022/08/14 04:27:58;;;;;;;5.75;4.80;;;;;;;-140.72;100.00;52102.75;4974662;28;20067;-70
2022/08/14 04:30:27;;;;;;;5.65;4.55;;;;;;;-140.72;100.00;52098.69;4965036;28;20558;-71
2022/08/14 04:32:52;;;;;;;5.20;4.45;;;;;;;-140.72;100.00;52076.34;4971223;28;20475;-71
2022/08/14 04:35:18;;;;;;;4.68;4.18;;;;;;;-140.72;100.00;52088.53;4974348;28;20156;-70
2022/08/14 04:45:55;;;;;;;7.03;4.72;;;;;;;-140.72;100.00;52096.66;4975483;28;20158;-70
2022/08/14 04:48:21;;;;;;;6.00;4.57;;;;;;;-140.72;100.00;52094.63;4980731;28;20055;-70
2022/08/14 04:50:50;;;;;;;5.90;5.05;;;;;;;-140.72;100.00;52135.19;4974154;28;20416;-71
2022/08/14 04:53:21;;;;;;;5.97;5.38;;;;;;;-140.72;100.00;52135.19;4974497;28;20041;-71
2022/08/14 04:55:49;;;;;;;5.75;5.15;;;;;;;-140.72;100.00;52108.81;4974977;28;20026;-70
2022/08/14 04:58:19;;;;;;;6.68;5.18;;;;;;;-140.72;100.00;52090.56;4979843;28;20027;-71
2022/08/14 05:00:49;;;;;;;7.13;5.75;;;;;;;-140.72;100.00;52070.28;4972391;28;20434;-70
2022/08/14 05:03:15;;;;;;;7.13;4.55;;;;;;;-140.72;100.00;52121.00;4974038;28;20356;-70
2022/08/14 05:05:41;;;;;;;6.18;5.13;;;;;;;-140.72;100.00;52072.31;4974858;28;20085;-70
2022/08/14 05:08:13;;;;;;;6.00;4.18;;;;;;;-140.72;100.00;52092.59;4975995;28;20463;-70
2022/08/14 05:10:40;;;;;;;8.45;4.60;;;;;;;-140.72;100.00;52080.41;4974562;28;20081;-70
2022/08/14 05:13:07;;;;;;;6.63;4.68;;;;;;;-140.72;100.00;52078.38;4980646;28;20094;-71
2022/08/14 05:15:35;;;;;;;5.80;4.65;;;;;;;-140.72;100.00;52102.75;4974552;28;20466;-70
2022/08/14 05:18:02;;;;;;;5.55;4.28;;;;;;;-140.72;100.00;52076.34;4973978;28;20030;-70
2022/08/14 05:20:29;;;;;;;6.30;4.88;;;;;;;-140.72;100.00;52066.22;4992642;28;20020;-70
2022/08/14 05:22:54;;;;;;;9.70;4.95;;;;;;;-140.72;100.00;52088.53;4963932;28;20035;-70
2022/08/14 05:25:20;;;;;;;5.72;4.22;;;;;;;-140.72;100.00;52086.50;4965219;28;20035;-71
2022/08/14 05:27:48;;;;;;;6.22;4.82;;;;;;;-140.72;100.00;52076.34;4969076;28;20217;-71
2022/08/14 05:30:14;;;;;;;6.07;4.68;;;;;;;-140.72;100.00;52090.56;4974569;28;20552;-70
2022/08/14 05:32:39;;;;;;;7.57;5.95;;;;;;;-140.72;100.00;52112.88;4973174;28;20145;-70
2022/08/14 05:35:05;;;;;;;7.00;6.30;;;;;;;-140.72;100.00;52090.56;4975719;28;20070;-72
2022/08/14 05:37:30;;;;;;;5.13;4.63;;;;;;;-140.72;100.00;52098.69;4984468;28;20491;-76
2022/08/14 05:39:57;;;;;;;10.00;5.65;;;;;;;-140.72;100.00;52054.03;5001122;28;20035;-68
2022/08/14 05:42:23;;;;;;;6.47;5.28;;;;;;;-140.72;100.00;52078.38;4979235;28;20031;-72
2022/08/14 05:44:48;;;;;;;6.57;5.70;;;;;;;-140.72;100.00;52090.56;4977275;28;20034;-70
2022/08/14 05:47:14;;;;;;;7.00;5.57;;;;;;;-140.72;100.00;52074.34;4981486;28;20094;-72
2022/08/14 05:49:39;;;;;;;5.63;5.05;;;;;;;-140.72;100.00;52056.06;4983432;28;20045;-72
2022/08/14 05:52:05;;;;;;;6.55;5.50;;;;;;;-140.72;100.00;52054.03;4981981;28;20086;-73
2022/08/14 05:54:30;;;;;;;7.65;5.55;;;;;;;-140.72;100.00;52068.25;4978255;28;20031;-73
2022/08/14 05:56:56;;;;;;;8.02;5.97;;;;;;;-140.72;100.00;52092.59;4974425;28;20045;-73
2022/08/14 05:59:21;;;;;;;7.22;6.20;;;;;;;-140.72;100.00;52064.19;4987258;28;20039;-73
2022/08/14 06:01:46;;;;;;;6.47;5.78;;;;;;;-140.72;100.00;52086.50;4971355;28;20031;-73
2022/08/14 06:04:12;;;;;;;7.05;5.93;;;;;;;-140.72;100.00;52033.75;4972306;28;20062;-73
2022/08/14 06:06:37;;;;;;;7.53;6.07;;;;;;;-140.72;100.00;52084.47;4991992;28;20031;-73
2022/08/14 06:09:03;;;;;;;6.40;5.78;;;;;;;-140.72;100.00;52094.63;4977847;28;20030;-74
2022/08/14 06:11:28;;;;;;;6.13;5.25;;;;;;;-140.72;100.00;52104.75;4977151;28;20027;-73
2022/08/14 06:13:53;;;;;;;8.70;6.10;;;;;;;-140.72;100.00;52106.78;4993521;28;20029;-72
2022/08/14 06:16:19;;;;;;;8.38;5.32;;;;;;;-140.72;100.00;52037.81;4979992;28;20041;-73
2022/08/14 06:18:46;;;;;;;8.00;5.68;;;;;;;-140.72;100.00;52072.31;4976396;28;20487;-73
2022/08/14 06:21:11;;;;;;;9.32;5.32;;;;;;;-140.72;100.00;52058.09;5026796;28;20038;-73
2022/08/14 06:23:36;;;;;;;7.97;5.40;;;;;;;-140.72;100.00;52070.28;4987728;28;20042;-74
2022/08/14 06:26:02;;;;;;;6.97;6.10;;;;;;;-140.72;100.00;52043.91;4991909;28;20046;-75
2022/08/14 06:28:28;;;;;;;6.60;5.13;;;;;;;-140.72;100.00;52029.69;4989234;28;20037;-72
2022/08/14 06:30:54;;;;;;;6.00;4.80;;;;;;;-140.72;100.00;52078.38;4987649;28;20027;-73
2022/08/14 06:33:20;;;;;;;7.00;5.53;;;;;;;-140.72;100.00;52058.09;4993281;28;20026;-73
2022/08/14 06:35:48;;;;;;;6.22;5.57;;;;;;;-140.72;100.00;52094.63;4993909;28;20035;-79
2022/08/14 06:38:19;;;;;;;8.75;5.55;;;;;;;-140.72;100.00;52049.97;5027540;28;20030;-74
2022/08/14 06:40:45;;;;;;;6.38;5.20;;;;;;;-140.72;100.00;52027.66;4991486;28;20082;-76
2022/08/14 06:43:11;;;;;;;7.15;6.32;;;;;;;-140.72;100.00;52029.69;4990545;28;20038;-77
2022/08/14 06:45:39;;;;;;;7.57;5.53;;;;;;;-140.72;100.00;52045.94;4980469;28;20054;-76
2022/08/14 06:48:15;;;;;;;8.77;6.38;;;;;;;-140.72;100.00;52045.94;4981821;28;20039;-75
2022/08/14 06:50:42;;;;;;;7.05;5.70;;;;;;;-140.72;100.00;52041.88;4982057;28;20022;-75
2022/08/14 06:53:07;;;;;;;7.10;5.70;;;;;;;-140.72;100.00;52019.56;4984525;28;20034;-76
2022/08/14 06:55:32;;;;;;;8.10;6.10;;;;;;;-140.72;100.00;52027.66;4985470;28;20110;-73
2022/08/14 06:57:58;;;;;;;6.20;5.20;;;;;;;-140.72;98.47;52017.53;4982593;28;20035;-74
2022/08/14 07:00:27;;;;;;;6.55;5.57;;;;;;;-140.72;89.96;52052.00;4980781;28;20184;-74
2022/08/14 07:05:45;;;;;;;8.50;6.28;;;;;;;-140.72;73.98;52035.78;4991180;28;20097;-75
2022/08/14 07:08:19;;;;;;;7.63;5.82;;;;;;;-140.72;70.36;52013.47;5026866;28;20107;-76
2022/08/14 07:10:50;;;;;;;7.05;5.78;;;;;;;-140.72;61.58;51997.22;5024266;28;20057;-76
2022/08/14 07:13:19;;;;;;;6.55;5.13;;;;;;;-140.72;54.94;52007.38;4978765;28;20038;-83
2022/08/14 07:15:49;;;;;;;8.02;5.68;;;;;;;-140.72;47.21;51997.22;4978558;28;20011;-77
2022/08/14 07:18:18;;;;;;;6.78;5.63;;;;;;;-140.72;36.28;51991.16;4989556;28;20038;-75
2022/08/14 07:20:44;;;;;;;;;;;;;;;-140.72;31.14;51958.69;4988088;28;20031;-74
2022/08/14 07:23:10;;;;;;;6.28;5.65;;;;;;;-140.72;29.65;51993.19;4980861;28;19941;-75
2022/08/14 07:25:38;;;;;;;5.50;4.95;;;;;;;-140.72;19.52;51970.84;4976836;28;20026;-74
2022/08/14 07:28:25;;;;;;;9.75;5.78;;;;;;;-140.72;15.62;52007.38;4973420;28;20030;-74
2022/08/14 07:30:56;;;;;;;6.65;5.07;;;;;;;-140.72;25.39;51995.19;4978303;28;20038;-74
2022/08/14 07:33:24;;;;;;;8.32;5.32;;;;;;;-140.72;18.69;51985.06;4983837;28;20402;-74
2022/08/14 07:35:49;;;;;;;6.40;4.85;;;;;;;-140.72;7.49;51960.72;4986190;28;20049;-75
2022/08/14 07:38:22;;;;;;;9.27;5.43;;;;;;;-140.72;0.00;52015.50;4997936;28;20453;-77
2022/08/14 07:40:49;;;;;;;8.18;5.95;;;;;;;-140.72;0.00;51946.50;4994328;28;20066;-78
2022/08/14 07:43:15;;;;;;;8.65;5.63;;;;;;;-140.72;0.00;51960.72;5025369;28;20054;-75
2022/08/14 07:45:41;;;;;;;5.88;5.28;;;;;;;-140.72;0.00;51981.00;4986359;28;20035;-75
2022/08/14 07:48:07;;;;;;;5.95;4.50;;;;;;;-140.72;0.00;51946.50;4995949;28;20070;-75
2022/08/14 07:50:32;;;;;;;6.10;4.63;;;;;;;-140.72;0.00;51995.19;4986185;28;20055;-73
2022/08/14 07:52:58;;;;;;;6.28;4.55;;;;;;;-140.72;0.00;51987.09;4996521;28;20042;-76
2022/08/14 07:55:24;;;;;;;7.07;5.55;;;;;;;-140.72;0.00;51928.25;4998982;28;20046;-76
2022/08/14 07:57:50;;;;;;;8.43;5.25;;;;;;;-140.72;0.00;51976.94;4980919;28;20109;-76
2022/08/14 08:00:21;;;;;;;6.72;4.85;;;;;;;-140.72;0.00;51972.88;4984134;28;20026;-74
2022/08/14 08:02:50;;;;;;;5.97;4.90;;;;;;;-140.72;0.00;51944.47;5013446;28;20031;-78
2022/08/14 08:05:17;;;;;;;5.45;4.60;;;;;;;-140.72;0.00;51944.47;4978451;28;20111;-75
2022/08/14 08:07:44;;;;;;;6.32;4.80;;;;;;;-140.72;0.00;51948.53;4986738;28;20391;-76
2022/08/14 08:10:31;;;;;;;6.47;4.93;;;;;;;-140.72;0.00;51944.47;4973564;28;20038;-78
2022/08/14 08:12:57;;;;;;;6.70;4.78;;;;;;;-140.72;0.00;51944.47;4987970;28;20451;-77
2022/08/14 08:15:25;;;;;;;5.55;4.10;;;;;;;-140.72;0.00;51879.56;4974414;28;20029;-76
2022/08/14 08:17:50;;;;;;;6.82;4.88;;;;;;;-140.72;0.00;51934.34;4972727;28;20479;-78
2022/08/14 08:20:22;;;;;;;5.90;4.53;;;;;;;-140.72;0.00;51916.06;4975136;28;20093;-77
2022/08/14 08:22:49;;;;;;;4.82;4.18;;;;;;;-140.72;0.00;51928.25;5006655;28;20023;-75
2022/08/14 08:25:16;;;;;;;7.55;5.05;;;;;;;-140.72;0.00;51883.63;5006563;28;20107;-76
2022/08/14 08:27:42;;;;;;;11.85;4.95;;;;;;;-140.72;0.00;51907.97;4973443;28;20023;-75
2022/08/14 08:30:08;;;;;;;5.97;5.15;;;;;;;-140.72;0.00;51855.22;4978310;28;20042;-75
2022/08/14 08:32:41;;;;;;;5.57;4.30;;;;;;;-140.72;0.00;51873.47;4976685;28;20463;-76
2022/08/14 08:35:23;;;;;;;7.90;4.38;;;;;;;-140.72;0.00;51873.47;4971593;28;20054;-76
2022/08/14 08:37:49;;;;;;;5.75;4.28;;;;;;;-140.72;0.00;51826.81;4975059;28;20030;-75
2022/08/14 08:40:27;;;;;;;6.28;4.45;;;;;;;-140.72;0.00;51873.47;4974683;28;20030;-76
2022/08/14 08:42:52;;;;;;;5.10;3.97;;;;;;;-140.72;0.00;51806.53;4977282;28;20039;-78
2022/08/14 08:45:19;;;;;;;6.18;3.38;;;;;;;-140.72;0.00;51830.88;4989644;28;20442;-74
2022/08/14 08:47:46;;;;;;;4.35;3.28;;;;;;;-140.72;0.00;51822.75;4975920;28;20027;-74
2022/08/14 08:50:29;;;;;;;4.82;3.40;;;;;;;-140.72;0.00;51814.63;5001604;28;20053;-76
2022/08/14 08:52:56;;;;;;;5.97;4.43;;;;;;;-140.72;0.00;51741.59;4990098;28;20026;-72
2022/08/14 08:55:33;;;;;;;5.20;3.63;;;;;;;-140.72;0.00;51757.81;4998498;28;20055;-72
2022/08/14 08:58:16;;;;;;;4.32;3.50;;;;;;;-140.72;0.00;51737.53;4996915;28;20031;-74
2022/08/14 09:00:45;;;;;;;3.85;2.95;;;;;;;-140.72;0.00;51745.66;5005308;28;20019;-73
2022/08/14 09:03:16;;;;;;;4.88;3.55;;;;;;;-140.72;0.00;51694.94;4992119;28;20031;-73
2022/08/14 09:05:56;;;;;;;5.45;3.40;;;;;;;-140.72;0.00;51684.78;4984245;28;20033;-73
2022/08/14 09:08:27;;;;;;;4.53;3.22;;;;;;;-140.72;0.00;51674.66;4993980;28;20039;-73
2022/08/14 09:10:54;;;;;;;4.72;3.20;;;;;;;-140.72;0.00;51670.59;4982751;28;20034;-69
2022/08/14 09:13:21;;;;;;;4.90;3.30;;;;;;;-140.72;0.00;51656.38;4991540;28;20042;-73
2022/08/14 09:15:48;;;;;;;4.25;2.97;;;;;;;-140.72;0.00;51660.44;4995686;28;20031;-73
2022/08/14 09:18:16;;;;;;;3.58;2.55;;;;;;;-140.72;0.00;51605.66;4981047;28;20022;-69
2022/08/14 09:20:45;;;;;;;4.00;2.92;;;;;;;-140.72;0.00;51619.88;4998780;28;20054;-70
2022/08/14 09:23:12;;;;;;;3.25;2.05;;;;;;;-140.72;0.00;51581.31;5002545;28;20038;-70
2022/08/14 09:25:40;;;;;;;3.67;2.83;;;;;;;-140.72;0.00;51583.34;4995889;28;20030;-73
2022/08/14 09:28:07;;;;;;;3.42;2.60;;;;;;;-140.72;0.00;51615.81;4984566;28;20094;-70
2022/08/14 09:30:35;;;;;;;4.13;2.65;;;;;;;-140.72;0.00;51556.97;4985737;28;20039;-68
2022/08/14 09:33:00;;;;;;;4.90;2.42;;;;;;;-140.72;0.00;51544.81;4984426;28;20031;-68
2022/08/14 09:35:46;;;;;;;3.00;2.20;;;;;;;-140.72;0.00;51552.94;4993003;28;20050;-69
2022/08/14 09:38:36;;;;;;;3.22;2.35;;;;;;;-140.72;0.00;51528.59;4993564;28;20041;-72
2022/08/14 09:41:32;;;;;;;2.30;1.90;;;;;;;-140.72;0.00;51490.03;4995219;28;20015;-71
2022/08/14 09:44:06;;;;;;;3.17;1.92;;;;;;;-140.72;0.00;51469.75;4995071;28;20094;-73
2022/08/14 09:46:33;;;;;;;2.47;1.70;;;;;;;-140.72;0.00;51471.78;4995902;28;20030;-74
2022/08/14 09:49:00;;;;;;;1.35;1.23;;;;;;;-140.72;0.00;51441.34;4990999;28;20065;-70
2022/08/14 09:51:28;;;;;;;3.80;1.83;;;;;;;-140.72;0.00;51423.09;4983324;28;20089;-72
2022/08/14 09:54:06;;;;;;;3.65;2.28;;;;;;;-140.72;0.00;51463.66;4982107;28;20378;-74
2022/08/14 09:56:49;;;;;;;2.72;1.88;;;;;;;-140.72;0.00;51443.38;5015147;28;20042;-69
2022/08/14 09:59:21;;;;;;;2.67;1.70;;;;;;;-140.72;0.00;51433.22;4978902;28;20031;-71
2022/08/14 10:01:47;;;;;;;1.75;1.30;;;;;;;-140.72;0.00;51390.63;4980734;28;20027;-71
2022/08/14 10:04:19;;;;;;;7.13;2.05;;;;;;;-140.72;0.00;51358.19;4986919;28;20113;-71
2022/08/14 10:06:45;;;;;;;2.67;1.58;;;;;;;-140.72;0.00;51392.66;5016892;28;20023;-75
2022/08/14 10:09:10;;;;;;;3.17;1.27;;;;;;;-140.72;0.00;51350.06;4981830;28;20094;-73
2022/08/14 10:11:37;;;;;;;1.67;1.17;;;;;;;-140.72;0.00;51360.22;4976909;28;20035;-72
2022/08/14 10:14:16;;;;;;;2.03;1.20;;;;;;;-140.72;0.00;51329.78;4977175;28;20035;-72
2022/08/14 10:16:47;;;;;;;2.08;1.13;;;;;;;-140.72;0.00;51301.38;4973959;28;20026;-72
2022/08/14 10:19:15;;;;;;;1.42;0.98;;;;;;;-140.72;0.00;51319.63;4977083;28;20027;-72
2022/08/14 10:21:47;;;;;;;2.15;1.42;;;;;;;-140.72;0.00;51297.31;4972769;28;20387;-71
2022/08/14 10:24:36;;;;;;;2.42;1.10;;;;;;;-140.72;0.00;51329.78;4976690;28;20035;-72
2022/08/14 10:27:01;;;;;;;2.05;1.30;;;;;;;-140.72;0.00;51287.19;4974063;28;20491;-72
2022/08/14 10:29:39;;;;;;;1.67;1.20;;;;;;;-140.72;0.00;51311.53;4976246;28;20027;-72
2022/08/14 10:32:05;;;;;;;;;;;;;;;-140.72;0.00;51293.25;4991607;28;20035;-69
2022/08/14 10:34:33;;;;;;;2.42;1.38;;;;;;;-140.72;0.00;51319.63;4975249;28;19973;-70
2022/08/14 10:37:15;;;;;;;1.63;1.17;;;;;;;-140.72;0.00;51303.41;4987495;28;20030;-70
2022/08/14 10:39:42;;;;;;;2.08;1.25;;;;;;;-140.72;0.00;51275.00;4995850;28;20097;-69
2022/08/14 10:42:13;;;;;;;2.65;1.35;;;;;;;-140.72;0.00;51305.44;4984201;28;20042;-69
2022/08/14 10:44:47;;;;;;;1.65;1.23;;;;;;;-140.72;0.00;51260.81;4975893;28;20352;-70
2022/08/14 10:47:14;;;;;;;1.33;0.95;;;;;;;-140.72;0.00;51234.44;4975687;28;20023;-70
2022/08/14 10:49:48;;;;;;;2.97;1.25;;;;;;;-140.72;0.00;51189.81;4973179;28;20101;-70
2022/08/14 10:52:30;;;;;;;2.03;1.40;;;;;;;-140.72;0.00;51169.53;4975153;28;20570;-71
2022/08/14 10:55:13;;;;;;;1.70;1.17;;;;;;;-140.72;0.00;51161.41;4965908;28;20034;-70
2022/08/14 10:57:53;;;;;;;1.73;0.93;;;;;;;-140.72;0.00;51155.31;4974831;28;20031;-70
2022/08/14 11:00:25;;;;;;;1.90;1.05;;;;;;;-140.72;0.00;51165.47;4973308;28;20399;-70
2022/08/14 11:02:58;;;;;;;2.17;1.10;;;;;;;-140.72;0.00;51171.56;4963606;28;20058;-70
2022/08/14 11:05:25;;;;;;;1.95;1.25;;;;;;;-140.72;0.00;51179.66;4974322;28;20431;-71
2022/08/14 11:07:54;;;;;;;3.03;1.08;;;;;;;-140.72;0.00;51171.56;4958383;28;20026;-70
2022/08/14 11:10:21;;;;;;;1.27;0.80;;;;;;;-140.72;0.00;51187.78;4962390;28;20027;-70
2022/08/14 11:12:49;;;;;;;1.77;1.10;;;;;;;-140.72;0.00;51139.09;4975135;28;20130;-70
2022/08/14 11:15:17;;;;;;;2.67;1.27;;;;;;;-140.72;0.00;51161.41;4989668;28;20023;-70
2022/08/14 11:17:46;;;;;;;1.38;0.90;;;;;;;-140.72;0.00;51064.03;4975319;28;20050;-70
2022/08/14 11:20:13;;;;;;;3.08;0.88;;;;;;;-140.72;0.00;51086.34;4975225;28;20490;-70
2022/08/14 11:22:42;;;;;;;1.67;0.80;;;;;;;-140.72;0.00;51094.47;4975513;28;20045;-70
2022/08/14 11:25:13;;;;;;;2.05;1.05;;;;;;;-140.72;0.00;51090.41;4975130;28;20459;-70
2022/08/14 11:27:43;;;;;;;1.52;0.90;;;;;;;-140.72;0.00;51230.38;4981800;28;20030;-70
2022/08/14 11:30:12;;;;;;;1.52;0.82;;;;;;;-140.72;0.00;51167.50;4973749;28;20034;-70
2022/08/14 11:32:41;;;;;;;1.25;0.75;;;;;;;-140.72;0.00;51094.47;4974620;28;20062;-70
2022/08/14 11:35:11;;;;;;;0.82;0.52;;;;;;;-140.72;0.00;51092.44;4975569;28;20422;-70
2022/08/14 11:37:38;;;;;;;2.95;0.93;;;;;;;-140.72;0.00;51047.81;4974859;28;20053;-71
2022/08/14 11:40:04;;;;;;;2.80;0.93;;;;;;;-140.72;0.00;51053.91;4977435;28;20033;-70
2022/08/14 11:42:31;;;;;;;1.65;0.75;;;;;;;-140.72;0.00;51116.78;4979542;28;20026;-70
2022/08/14 11:44:58;;;;;;;1.30;0.60;;;;;;;-140.72;0.00;51277.03;4977913;28;20402;-70
2022/08/14 11:47:24;;;;;;;1.08;0.60;;;;;;;-140.72;0.00;51234.44;4977556;28;20066;-69